Calgary, Alberta

12:06 PM MDT on October 23, 2014 (GMT -0600)
Springbank | Change Station
CLOSE
Current Station
Airport
Location: Calgary Springbank,
Elevation: 3937 ft
Nearby Weather Stations

Elev 3937 ft 51.10 °N, 114.37 °W | Updated 19 minutes ago

Clear
Clear
59 °F
Feels Like 59 °F
N
25
Wind Variable Wind from West
Gusts 32 mph

Today is forecast to be nearly the same temperature as yesterday.

Today
High -- | Low -- °F
--% Chance of Precip.
Yesterday
High -- | Low -- °F
Precip. -- in
8:14 AM 6:28 PM
Waning Crescent, 0% visible
Pressure 29.59 in
Visibility 9.0 miles
Clouds Clear
Dew Point 25 °F
Humidity 27%
Rainfall 0.00 in
Snow Depth Not available.
UV 2 out of 12
Pollen Not available.
Air Quality Not available.
Flu Activity Not available.
SPECI CYBW 231747Z AUTO 26022G28KT 9SM CLR 15/M04 A2955 RMK PRESRR SLP018 DENSITY ALT 5200FT

More Conditions Fewer Conditions

Pressure 29.59 in
Visibility 9.0 miles
Clouds Clear
Dew Point 25 °F
Humidity 27%
Rainfall 0.00 in
Snow Depth Not available.
UV 2 out of 12
Pollen Not available.
Air Quality Not available.
Flu Activity Not available.
SPECI CYBW 231747Z AUTO 26022G28KT 9SM CLR 15/M04 A2955 RMK PRESRR SLP018 DENSITY ALT 5200FT

More Conditions Fewer Conditions

10-Day Weather Forecast

Almanac

Astronomy

Oct. 23, 2014 Rise Set
Actual Time 8:14 AM MDT 6:28 PM MDT
Civil Twilight 7:40 AM MDT 7:02 PM MDT
Nautical Twilight 7:02 AM MDT 7:40 PM MDT
Astronomical Twilight 6:23 AM MDT 8:18 PM MDT
Moon 7:56 AM MDT 6:31 PM MDT
Length of Visible Light 11h 21m
Length of Day
10h 13m
Tomorrow will be 3m 41s shorter.
Waning Crescent, 0% of the Moon is Illuminated
Today
Waning Crescent
Oct 23
New
Oct 30
First Quarter
Nov 6
Full
Nov 14
Last Quarter

Today's Extremes

Country Highs Country Lows

Community

WunderPhotos

Upload Photos

1,764,327 photos uploaded!

WunderBlogs® & News

By Dr. Jeff Masters
Director of Meteorology, Weather Underground
By Kari Strenfel
Meteorologist, Weather Underground
By Christopher C. Burt
Weather Historian, Weather Underground
October 23, 2014
October 23, 2014
October 23, 2014

Nearby

Snow Depth

Not available.

Earthquake Activity

City Distance Mag. Time & Date
No recent earthquake activity has been reported nearby.
Minimum magnitude displayed is 2.5.

Coastal Water Temperatures

Place Temperature
No Stations Reporting

Nearby Weather Stations